createdAt,value
2022-12-29T00:01:04.924Z,13.36
2022-12-29T00:03:34.078Z,13.32
2022-12-29T00:06:03.725Z,13.21
2022-12-29T00:08:41.672Z,13.11
2022-12-29T00:11:11.220Z,13.30
2022-12-29T00:13:57.912Z,13.24
2022-12-29T00:16:27.097Z,13.59
2022-12-29T00:18:56.980Z,13.36
2022-12-29T00:22:04.011Z,13.44
2022-12-29T00:25:44.704Z,12.99
2022-12-29T00:28:35.313Z,13.46
2022-12-29T00:31:22.199Z,13.46
2022-12-29T00:34:08.082Z,13.70
2022-12-29T00:36:40.186Z,13.32
2022-12-29T00:39:32.225Z,13.56
2022-12-29T00:42:35.873Z,13.04
2022-12-29T00:45:07.285Z,13.48
2022-12-29T00:47:36.242Z,13.31
2022-12-29T00:50:03.779Z,13.41
2022-12-29T00:52:32.121Z,13.53
2022-12-29T00:55:01.318Z,13.90
2022-12-29T00:57:29.560Z,13.69
2022-12-29T00:59:59.417Z,13.73
2022-12-29T01:02:30.810Z,13.76
2022-12-29T01:04:59.586Z,13.67
2022-12-29T01:07:28.351Z,13.90
2022-12-29T01:10:10.988Z,13.67
2022-12-29T01:12:46.254Z,13.74
2022-12-29T01:15:18.361Z,13.56
2022-12-29T01:17:48.806Z,13.76
2022-12-29T01:20:18.449Z,13.34
2022-12-29T01:22:48.241Z,13.57
2022-12-29T01:25:18.593Z,13.57
2022-12-29T01:27:47.255Z,13.71
2022-12-29T01:30:16.047Z,13.60
2022-12-29T01:32:50.080Z,13.60
2022-12-29T01:35:18.719Z,13.61
2022-12-29T01:37:47.605Z,13.75
2022-12-29T01:40:18.087Z,13.60
2022-12-29T01:42:48.906Z,13.53
2022-12-29T01:45:21.133Z,13.60
2022-12-29T01:47:57.702Z,13.50
2022-12-29T01:50:33.505Z,13.20
2022-12-29T01:53:07.151Z,13.41
2022-12-29T01:55:43.445Z,13.59
2022-12-29T01:58:17.331Z,13.52
2022-12-29T02:00:48.920Z,13.57
2022-12-29T02:03:23.701Z,13.71
2022-12-29T02:05:59.996Z,13.46
2022-12-29T02:08:31.987Z,13.42
2022-12-29T02:11:03.318Z,13.75
2022-12-29T02:13:32.264Z,13.51
2022-12-29T02:16:35.424Z,13.54
2022-12-29T02:19:49.954Z,13.45
2022-12-29T02:22:31.184Z,13.20
2022-12-29T02:25:36.168Z,13.57
2022-12-29T02:28:46.791Z,13.37
2022-12-29T02:32:10.645Z,13.16
2022-12-29T02:35:08.359Z,13.53
2022-12-29T02:37:50.760Z,13.20
2022-12-29T02:40:37.621Z,13.28
2022-12-29T02:43:16.131Z,13.48
2022-12-29T02:45:56.385Z,13.37
2022-12-29T02:48:33.079Z,13.55
2022-12-29T02:51:05.945Z,13.46
2022-12-29T02:53:55.322Z,13.59
2022-12-29T02:56:25.023Z,13.62
2022-12-29T02:58:53.948Z,13.14
2022-12-29T03:02:11.684Z,13.22
2022-12-29T03:12:11.782Z,13.21
2022-12-29T03:15:11.614Z,13.00
2022-12-29T03:17:54.292Z,13.08
2022-12-29T03:20:34.530Z,12.95
2022-12-29T03:23:06.526Z,13.15
2022-12-29T03:25:42.168Z,12.85
2022-12-29T03:28:19.636Z,12.86
2022-12-29T03:30:49.311Z,13.03
2022-12-29T03:33:23.886Z,12.95
2022-12-29T03:36:02.013Z,12.90
2022-12-29T03:38:38.281Z,12.74
2022-12-29T03:41:12.828Z,12.77
2022-12-29T03:43:41.876Z,12.80
2022-12-29T03:46:12.587Z,12.96
2022-12-29T03:48:43.851Z,12.26
2022-12-29T03:51:14.346Z,12.87
2022-12-29T03:53:43.488Z,12.74
2022-12-29T03:56:27.530Z,12.56
2022-12-29T03:58:57.045Z,12.94
2022-12-29T04:01:42.775Z,12.81
2022-12-29T04:04:11.409Z,12.66
2022-12-29T04:06:42.213Z,12.68
2022-12-29T04:09:14.802Z,12.57
2022-12-29T04:11:44.799Z,12.38
2022-12-29T04:18:47.398Z,12.51
2022-12-29T04:21:15.945Z,12.57
2022-12-29T04:23:51.138Z,12.49
2022-12-29T04:26:19.707Z,13.01
2022-12-29T04:28:48.084Z,12.76
2022-12-29T04:31:16.430Z,12.57
2022-12-29T04:33:45.260Z,12.68
2022-12-29T04:36:14.108Z,12.63
2022-12-29T04:38:44.706Z,12.68
2022-12-29T04:41:15.398Z,12.74
2022-12-29T04:43:44.250Z,12.66
2022-12-29T04:46:14.510Z,12.48
2022-12-29T04:48:46.608Z,12.34
2022-12-29T04:51:15.453Z,12.47
2022-12-29T04:57:16.854Z,12.38
2022-12-29T04:59:52.847Z,12.50
2022-12-29T05:02:26.859Z,12.39
2022-12-29T05:05:08.406Z,12.20
2022-12-29T05:07:37.306Z,12.23
2022-12-29T05:10:07.913Z,12.38
2022-12-29T05:12:40.276Z,12.44
2022-12-29T05:15:13.120Z,12.41
2022-12-29T05:17:41.960Z,12.19
2022-12-29T05:20:12.227Z,12.24
2022-12-29T05:22:41.172Z,11.92
2022-12-29T05:25:11.481Z,12.24
2022-12-29T05:27:41.501Z,12.27
2022-12-29T05:30:12.162Z,12.33
2022-12-29T05:32:42.263Z,12.39
2022-12-29T05:35:11.311Z,12.19
2022-12-29T05:37:42.318Z,12.08
2022-12-29T05:40:12.555Z,12.24
2022-12-29T05:42:42.915Z,12.08
2022-12-29T05:45:13.158Z,12.34
2022-12-29T05:47:42.169Z,12.13
2022-12-29T05:50:12.757Z,12.31
2022-12-29T05:52:41.896Z,12.14
2022-12-29T05:55:11.164Z,12.31
2022-12-29T05:57:42.409Z,12.07
2022-12-29T06:00:13.967Z,12.06
2022-12-29T06:02:46.097Z,11.98
2022-12-29T06:05:15.612Z,11.83
2022-12-29T06:07:45.842Z,12.07
2022-12-29T06:10:15.771Z,11.92
2022-12-29T06:12:47.312Z,12.03
2022-12-29T06:15:16.923Z,12.07
2022-12-29T06:17:46.964Z,12.04
2022-12-29T06:20:15.575Z,11.88
2022-12-29T06:22:44.949Z,12.03
2022-12-29T06:25:14.254Z,12.18
2022-12-29T06:27:44.637Z,12.25
2022-12-29T06:30:16.476Z,12.19
2022-12-29T06:32:47.268Z,11.88
2022-12-29T06:35:18.039Z,12.14
2022-12-29T06:37:49.717Z,12.23
2022-12-29T06:40:18.956Z,12.09
2022-12-29T06:42:51.729Z,12.07
2022-12-29T06:45:20.318Z,12.28
2022-12-29T06:47:50.081Z,12.16
2022-12-29T06:50:19.733Z,11.98
2022-12-29T06:52:49.756Z,12.01
2022-12-29T06:55:18.842Z,12.31
2022-12-29T06:58:04.541Z,12.20
2022-12-29T07:00:33.272Z,12.37
2022-12-29T07:03:03.093Z,12.31
2022-12-29T07:05:33.950Z,12.01
2022-12-29T07:08:03.299Z,12.02
2022-12-29T07:10:34.288Z,12.08
2022-12-29T07:13:05.282Z,12.01
2022-12-29T07:15:35.275Z,12.27
2022-12-29T07:18:05.388Z,12.08
2022-12-29T07:20:35.333Z,12.12
2022-12-29T07:23:05.075Z,12.09
2022-12-29T07:25:34.200Z,12.22
2022-12-29T07:28:05.238Z,12.05
2022-12-29T07:30:33.994Z,12.17
2022-12-29T07:33:04.222Z,12.14
2022-12-29T07:35:36.274Z,12.16
2022-12-29T07:38:05.273Z,12.16
2022-12-29T07:40:37.293Z,12.10
2022-12-29T07:43:07.802Z,12.24
2022-12-29T07:45:37.596Z,12.32
2022-12-29T07:48:08.722Z,12.22
2022-12-29T07:50:38.753Z,11.97
2022-12-29T07:53:08.122Z,12.28
2022-12-29T07:55:37.009Z,11.86
2022-12-29T07:58:08.269Z,12.19
2022-12-29T08:00:39.036Z,11.96
2022-12-29T08:03:08.203Z,11.77
2022-12-29T08:05:37.557Z,11.81
2022-12-29T08:08:06.781Z,12.01
2022-12-29T08:10:35.686Z,11.88
2022-12-29T08:13:04.804Z,11.95
2022-12-29T08:15:37.768Z,11.63
2022-12-29T08:18:07.075Z,11.95
2022-12-29T08:20:37.004Z,11.64
2022-12-29T08:23:15.187Z,11.66
2022-12-29T08:25:43.983Z,11.50
2022-12-29T08:28:13.806Z,11.87
2022-12-29T08:30:46.327Z,11.63
2022-12-29T08:33:15.673Z,11.73
2022-12-29T08:35:48.555Z,11.58
2022-12-29T08:38:17.934Z,11.85
2022-12-29T08:40:46.661Z,11.70
2022-12-29T08:43:18.517Z,11.54
2022-12-29T08:45:51.067Z,11.61
2022-12-29T08:48:20.899Z,11.78
2022-12-29T08:50:51.357Z,11.63
2022-12-29T08:53:20.644Z,11.79
2022-12-29T08:56:02.120Z,11.69
2022-12-29T08:58:34.158Z,11.71
2022-12-29T09:01:04.688Z,11.54
2022-12-29T09:06:23.241Z,11.40
2022-12-29T09:08:51.575Z,11.64
2022-12-29T09:11:24.613Z,11.77
2022-12-29T09:13:58.448Z,11.27
2022-12-29T09:16:29.465Z,11.26
2022-12-29T09:18:58.124Z,11.51
2022-12-29T09:21:27.123Z,11.41
2022-12-29T09:23:55.537Z,11.50
2022-12-29T09:26:23.976Z,11.47
2022-12-29T09:28:52.885Z,11.64
2022-12-29T09:31:21.506Z,11.36
2022-12-29T09:33:51.668Z,11.47
2022-12-29T09:36:20.202Z,11.35
2022-12-29T09:38:48.836Z,11.57
2022-12-29T09:41:27.273Z,11.58
2022-12-29T09:44:09.583Z,11.52
2022-12-29T09:46:43.066Z,11.36
2022-12-29T09:49:27.090Z,11.54
2022-12-29T09:51:59.976Z,11.41
2022-12-29T09:54:47.739Z,11.37
2022-12-29T09:57:26.257Z,11.52
2022-12-29T10:00:05.588Z,11.54
2022-12-29T10:02:41.489Z,11.65
2022-12-29T10:05:49.061Z,11.53
2022-12-29T10:08:37.271Z,11.54
2022-12-29T10:11:20.809Z,11.83
2022-12-29T10:14:20.712Z,11.64
2022-12-29T10:16:59.998Z,12.06
2022-12-29T10:19:51.508Z,12.07
2022-12-29T10:22:35.505Z,11.85
2022-12-29T10:25:15.116Z,11.90
2022-12-29T10:27:45.859Z,11.72
2022-12-29T10:30:16.304Z,11.65
2022-12-29T10:32:51.736Z,11.83
2022-12-29T10:35:24.649Z,11.83
2022-12-29T10:38:02.753Z,12.01
2022-12-29T10:40:40.907Z,12.21
2022-12-29T10:43:25.236Z,11.87
2022-12-29T10:46:00.097Z,11.93
2022-12-29T10:48:33.651Z,12.16
2022-12-29T10:51:06.134Z,12.41
2022-12-29T10:53:46.288Z,12.20
2022-12-29T10:56:27.953Z,12.34
2022-12-29T10:59:00.408Z,12.37
2022-12-29T11:01:40.756Z,12.29
2022-12-29T11:04:28.204Z,12.49
2022-12-29T11:06:57.620Z,12.52
2022-12-29T11:09:41.919Z,12.26
2022-12-29T11:12:28.070Z,12.80
2022-12-29T11:15:15.394Z,12.85
2022-12-29T11:17:49.035Z,12.60
2022-12-29T11:20:39.489Z,12.73
2022-12-29T11:23:26.117Z,12.44
2022-12-29T11:26:30.305Z,12.66
2022-12-29T11:29:26.486Z,12.73
2022-12-29T11:31:59.113Z,13.02
2022-12-29T11:34:34.080Z,12.76
2022-12-29T11:37:07.172Z,12.99
2022-12-29T11:39:43.383Z,13.05
2022-12-29T11:42:21.106Z,13.05
2022-12-29T11:44:53.336Z,13.06
2022-12-29T11:47:33.606Z,12.89
2022-12-29T11:50:07.428Z,13.04
2022-12-29T11:55:36.750Z,12.70
2022-12-29T11:58:09.078Z,12.85
2022-12-29T12:00:42.591Z,12.95
2022-12-29T12:03:20.223Z,12.75
2022-12-29T12:05:54.340Z,12.67
2022-12-29T12:08:36.394Z,12.58
2022-12-29T12:11:14.475Z,12.68
2022-12-29T12:13:58.444Z,12.64
2022-12-29T12:16:37.185Z,12.65
2022-12-29T12:19:17.327Z,12.76
2022-12-29T12:21:54.307Z,12.76
2022-12-29T12:24:45.143Z,12.78
2022-12-29T12:27:20.655Z,12.56
2022-12-29T12:30:11.554Z,12.60
2022-12-29T12:32:48.736Z,12.83
2022-12-29T12:35:26.934Z,12.73
2022-12-29T12:38:20.803Z,12.76
2022-12-29T12:41:10.446Z,12.65
2022-12-29T12:43:51.968Z,12.96
2022-12-29T12:47:20.027Z,12.92
2022-12-29T12:50:42.303Z,13.22
2022-12-29T12:53:41.990Z,13.33
2022-12-29T12:56:58.720Z,12.98
2022-12-29T12:59:51.549Z,13.22
2022-12-29T13:02:37.869Z,13.14
2022-12-29T13:05:36.450Z,13.35
2022-12-29T13:08:56.281Z,12.83
2022-12-29T13:11:38.650Z,13.00
2022-12-29T13:14:28.097Z,13.05
2022-12-29T13:17:07.543Z,12.89
2022-12-29T13:19:43.529Z,13.03
2022-12-29T13:22:25.186Z,12.99
2022-12-29T13:25:09.649Z,12.73
2022-12-29T13:27:47.777Z,12.69
2022-12-29T13:30:21.864Z,12.77
2022-12-29T13:33:06.167Z,12.83
2022-12-29T13:36:01.811Z,13.10
2022-12-29T13:38:39.078Z,12.97
2022-12-29T13:41:11.138Z,12.99
2022-12-29T13:43:45.252Z,12.71
2022-12-29T13:46:24.184Z,12.59
2022-12-29T13:48:58.009Z,12.89
2022-12-29T13:51:28.681Z,12.85
2022-12-29T13:54:20.592Z,12.74
2022-12-29T13:57:02.582Z,13.02
2022-12-29T14:00:04.668Z,12.69
2022-12-29T14:02:45.224Z,12.89
2022-12-29T14:05:31.278Z,12.90
2022-12-29T14:08:06.647Z,13.10
2022-12-29T14:10:38.024Z,13.09
2022-12-29T14:13:13.062Z,13.00
2022-12-29T14:15:43.615Z,12.81
2022-12-29T14:18:21.595Z,12.89
2022-12-29T14:20:58.036Z,12.82
2022-12-29T14:23:41.252Z,12.86
2022-12-29T14:26:37.591Z,12.55
2022-12-29T14:35:47.293Z,12.71
2022-12-29T14:38:29.376Z,12.61
2022-12-29T14:41:38.015Z,12.72
2022-12-29T14:44:20.933Z,12.36
2022-12-29T14:46:59.726Z,12.54
2022-12-29T14:49:33.885Z,12.76
2022-12-29T14:52:18.898Z,12.50
2022-12-29T14:54:57.762Z,12.45
2022-12-29T14:57:42.214Z,12.18
2022-12-29T15:00:24.536Z,12.03
2022-12-29T15:03:05.667Z,12.23
2022-12-29T15:05:46.063Z,12.22
2022-12-29T15:08:18.428Z,12.36
2022-12-29T15:10:55.669Z,12.63
2022-12-29T15:13:35.631Z,12.48
2022-12-29T15:16:05.240Z,12.33
2022-12-29T15:18:35.772Z,12.58
2022-12-29T15:21:22.826Z,12.32
2022-12-29T15:23:52.173Z,12.25
2022-12-29T15:26:24.408Z,11.91
2022-12-29T15:29:53.585Z,11.70
2022-12-29T15:32:25.657Z,12.13
2022-12-29T15:35:05.453Z,11.49
2022-12-29T15:37:38.499Z,11.89
2022-12-29T15:40:27.839Z,11.78
2022-12-29T15:43:27.549Z,11.76
2022-12-29T15:45:58.447Z,11.74
2022-12-29T15:48:27.778Z,12.13
2022-12-29T15:50:57.596Z,12.01
2022-12-29T15:53:29.956Z,11.88
2022-12-29T15:56:03.934Z,11.58
2022-12-29T15:58:42.997Z,11.61
2022-12-29T16:01:21.715Z,11.95
2022-12-29T16:03:54.589Z,11.63
2022-12-29T16:06:35.372Z,11.64
2022-12-29T16:09:06.522Z,11.62
2022-12-29T16:11:38.972Z,11.71
2022-12-29T16:14:17.157Z,11.67
2022-12-29T16:16:50.217Z,11.82
2022-12-29T16:19:30.154Z,11.83
2022-12-29T16:22:00.626Z,11.84
2022-12-29T16:24:42.752Z,11.46
2022-12-29T16:27:24.432Z,11.29
2022-12-29T16:29:58.081Z,11.35
2022-12-29T16:32:31.268Z,11.62
2022-12-29T16:35:22.118Z,11.48
2022-12-29T16:38:17.554Z,11.42
2022-12-29T16:41:00.794Z,11.20
2022-12-29T16:43:37.828Z,11.63
2022-12-29T16:46:37.710Z,11.48
2022-12-29T16:49:23.778Z,11.27
2022-12-29T16:51:57.177Z,11.75
2022-12-29T16:54:35.444Z,11.34
2022-12-29T16:57:05.135Z,11.48
2022-12-29T16:59:37.138Z,11.45
2022-12-29T17:02:15.741Z,11.34
2022-12-29T17:04:49.417Z,11.47
2022-12-29T17:07:20.912Z,11.16
2022-12-29T17:09:55.217Z,11.49
2022-12-29T17:12:28.739Z,11.36
2022-12-29T17:15:00.883Z,10.92
2022-12-29T17:17:36.748Z,11.01
2022-12-29T17:20:17.854Z,10.99
2022-12-29T17:22:52.169Z,11.30
2022-12-29T17:25:25.543Z,10.96
2022-12-29T17:27:58.033Z,11.09
2022-12-29T17:30:33.868Z,11.06
2022-12-29T17:33:08.882Z,11.35
2022-12-29T17:35:40.058Z,11.46
2022-12-29T17:38:23.908Z,11.20
2022-12-29T17:40:54.607Z,11.46
2022-12-29T17:43:24.223Z,11.26
2022-12-29T17:45:57.823Z,11.32
2022-12-29T17:48:27.528Z,11.22
2022-12-29T17:50:59.939Z,11.34
2022-12-29T17:53:32.166Z,11.33
2022-12-29T17:56:01.372Z,11.37
2022-12-29T17:58:32.653Z,11.07
2022-12-29T18:01:03.869Z,11.15
2022-12-29T18:03:38.636Z,11.15
2022-12-29T18:06:12.502Z,10.98
2022-12-29T18:08:44.101Z,10.94
2022-12-29T18:11:26.243Z,11.07
2022-12-29T18:13:59.213Z,10.86
2022-12-29T18:16:28.131Z,10.93
2022-12-29T18:18:57.435Z,10.87
2022-12-29T18:21:28.530Z,10.62
2022-12-29T18:24:00.132Z,10.71
2022-12-29T18:26:32.018Z,10.77
2022-12-29T18:29:01.624Z,10.75
2022-12-29T18:31:34.110Z,10.67
2022-12-29T18:34:09.266Z,10.87
2022-12-29T18:36:43.341Z,10.77
2022-12-29T18:39:15.174Z,10.58
2022-12-29T18:41:43.945Z,10.64
2022-12-29T18:44:15.031Z,10.73
2022-12-29T18:46:44.936Z,10.83
2022-12-29T18:49:13.875Z,10.50
2022-12-29T18:51:44.312Z,11.01
2022-12-29T18:54:26.509Z,10.56
2022-12-29T18:56:55.391Z,10.61
2022-12-29T18:59:24.228Z,10.54
2022-12-29T19:01:53.566Z,10.42
2022-12-29T19:04:22.792Z,10.39
2022-12-29T19:06:54.423Z,10.50
2022-12-29T19:09:24.464Z,10.41
2022-12-29T19:11:57.041Z,10.37
2022-12-29T19:14:27.845Z,10.36
2022-12-29T19:16:57.554Z,10.50
2022-12-29T19:19:26.651Z,10.50
2022-12-29T19:21:59.238Z,10.17
2022-12-29T19:24:27.981Z,10.68
2022-12-29T19:26:56.511Z,10.56
2022-12-29T19:29:25.344Z,10.30
2022-12-29T19:31:54.440Z,10.45
2022-12-29T19:34:23.887Z,10.15
2022-12-29T19:36:54.401Z,10.05
2022-12-29T19:39:24.561Z,10.16
2022-12-29T19:41:59.060Z,10.28
2022-12-29T19:44:30.946Z,10.09
2022-12-29T19:47:03.073Z,10.00
2022-12-29T19:49:32.281Z,10.23
2022-12-29T19:52:04.404Z,10.01
2022-12-29T19:57:18.637Z,10.15
2022-12-29T19:59:47.499Z,10.10
2022-12-29T20:02:22.956Z,10.48
2022-12-29T20:04:52.653Z,10.36
2022-12-29T20:07:24.711Z,10.22
2022-12-29T20:09:57.851Z,10.26
2022-12-29T20:12:29.504Z,10.42
2022-12-29T20:14:58.767Z,10.43
2022-12-29T20:18:02.371Z,10.76
2022-12-29T20:20:19.472Z,10.45
2022-12-29T20:22:49.707Z,10.21
2022-12-29T20:25:44.315Z,10.44
2022-12-29T20:28:09.820Z,9.93
2022-12-29T20:30:39.584Z,10.22
2022-12-29T20:33:08.934Z,10.22
2022-12-29T20:35:39.443Z,10.68
2022-12-29T20:38:13.062Z,10.55
2022-12-29T20:40:46.992Z,10.04
2022-12-29T20:43:18.363Z,10.38
2022-12-29T20:45:48.607Z,9.86
2022-12-29T20:48:17.327Z,9.94
2022-12-29T20:50:48.703Z,10.16
2022-12-29T20:53:19.005Z,9.92
2022-12-29T20:55:53.100Z,9.79
2022-12-29T20:58:23.828Z,10.21
2022-12-29T21:00:53.416Z,10.16
2022-12-29T21:03:22.780Z,10.00
2022-12-29T21:05:57.514Z,10.04
2022-12-29T21:08:28.331Z,10.18
2022-12-29T21:11:02.102Z,10.04
2022-12-29T21:13:37.237Z,9.91
2022-12-29T21:16:09.087Z,9.92
2022-12-29T21:18:37.655Z,10.02
2022-12-29T21:21:09.925Z,9.98
2022-12-29T21:23:46.302Z,9.93
2022-12-29T21:26:20.613Z,9.81
2022-12-29T21:28:52.631Z,9.74
2022-12-29T21:31:30.410Z,9.68
2022-12-29T21:33:59.084Z,9.76
2022-12-29T21:36:29.793Z,9.86
2022-12-29T21:39:01.968Z,10.01
2022-12-29T21:41:33.874Z,9.73
2022-12-29T21:44:35.308Z,9.85
2022-12-29T21:47:05.709Z,9.36
2022-12-29T21:49:34.594Z,9.70
2022-12-29T21:52:10.848Z,9.86
2022-12-29T21:54:57.505Z,9.66
2022-12-29T21:57:45.514Z,9.77
2022-12-29T22:00:34.961Z,9.74
2022-12-29T22:03:23.952Z,9.49
2022-12-29T22:06:12.287Z,9.43
2022-12-29T22:09:00.675Z,9.54
2022-12-29T22:11:47.207Z,9.55
2022-12-29T22:14:17.995Z,9.49
2022-12-29T22:16:47.877Z,9.69
2022-12-29T22:19:18.289Z,9.48
2022-12-29T22:21:47.004Z,9.57
2022-12-29T22:24:17.187Z,9.39
2022-12-29T22:26:47.738Z,9.37
2022-12-29T22:29:19.917Z,9.44
2022-12-29T22:31:49.314Z,9.57
2022-12-29T22:34:20.467Z,9.45
2022-12-29T22:36:50.084Z,9.30
2022-12-29T22:39:19.478Z,9.54
2022-12-29T22:41:48.435Z,9.57
2022-12-29T22:44:19.868Z,9.41
2022-12-29T22:46:50.177Z,9.52
2022-12-29T22:49:21.352Z,9.49
2022-12-29T22:51:51.142Z,9.44
2022-12-29T22:54:20.613Z,9.44
2022-12-29T22:56:50.131Z,9.29
2022-12-29T22:59:21.576Z,9.45
2022-12-29T23:01:51.831Z,9.49
2022-12-29T23:05:01.450Z,9.64
2022-12-29T23:07:12.543Z,9.67
2022-12-29T23:09:42.401Z,9.41
2022-12-29T23:12:15.154Z,9.44
2022-12-29T23:14:47.095Z,9.54
2022-12-29T23:17:15.892Z,9.22
2022-12-29T23:19:44.520Z,8.93
2022-12-29T23:22:14.896Z,9.21
2022-12-29T23:24:45.256Z,9.11
2022-12-29T23:27:17.293Z,9.23
2022-12-29T23:29:48.469Z,9.14
2022-12-29T23:32:17.463Z,9.28
2022-12-29T23:34:47.733Z,9.39
2022-12-29T23:37:18.301Z,9.38
2022-12-29T23:39:48.204Z,9.24
2022-12-29T23:42:20.987Z,9.23
2022-12-29T23:44:50.982Z,9.13
2022-12-29T23:47:19.992Z,9.23
2022-12-29T23:49:50.451Z,9.29
2022-12-29T23:52:20.301Z,9.44
2022-12-29T23:54:49.434Z,9.44
2022-12-29T23:57:20.680Z,9.19
2022-12-29T23:59:58.680Z,9.09
